sensor_id;sensor_type;location;lat;lon;timestamp;temperature;humidity
12977;DHT22;6553;48.412;9.514;2024-02-21T00:00:56;18.40;66.20
12977;DHT22;6553;48.412;9.514;2024-02-21T00:03:22;18.40;66.40
12977;DHT22;6553;48.412;9.514;2024-02-21T00:05:48;18.40;66.40
12977;DHT22;6553;48.412;9.514;2024-02-21T00:08:13;18.40;66.30
12977;DHT22;6553;48.412;9.514;2024-02-21T00:10:39;18.40;66.20
12977;DHT22;6553;48.412;9.514;2024-02-21T00:13:05;18.40;66.20
12977;DHT22;6553;48.412;9.514;2024-02-21T00:15:31;18.40;66.30
12977;DHT22;6553;48.412;9.514;2024-02-21T00:17:57;18.40;66.20
12977;DHT22;6553;48.412;9.514;2024-02-21T00:20:22;18.40;66.10
12977;DHT22;6553;48.412;9.514;2024-02-21T00:22:48;18.40;66.20
12977;DHT22;6553;48.412;9.514;2024-02-21T00:25:14;18.40;66.20
12977;DHT22;6553;48.412;9.514;2024-02-21T00:27:39;18.40;66.10
12977;DHT22;6553;48.412;9.514;2024-02-21T00:30:06;18.40;66.20
12977;DHT22;6553;48.412;9.514;2024-02-21T00:32:32;18.40;66.10
12977;DHT22;6553;48.412;9.514;2024-02-21T00:35:00;18.40;66.20
12977;DHT22;6553;48.412;9.514;2024-02-21T00:37:27;18.40;66.20
12977;DHT22;6553;48.412;9.514;2024-02-21T00:39:54;18.40;66.20
12977;DHT22;6553;48.412;9.514;2024-02-21T00:42:20;18.40;66.30
12977;DHT22;6553;48.412;9.514;2024-02-21T00:44:46;18.40;66.20
12977;DHT22;6553;48.412;9.514;2024-02-21T00:47:12;18.40;66.20
12977;DHT22;6553;48.412;9.514;2024-02-21T00:49:38;18.40;66.20
12977;DHT22;6553;48.412;9.514;2024-02-21T00:52:04;18.40;66.30
12977;DHT22;6553;48.412;9.514;2024-02-21T00:54:30;18.40;66.30
12977;DHT22;6553;48.412;9.514;2024-02-21T00:56:55;18.40;66.20
12977;DHT22;6553;48.412;9.514;2024-02-21T00:59:21;18.40;66.10
12977;DHT22;6553;48.412;9.514;2024-02-21T01:01:47;18.40;66.20
12977;DHT22;6553;48.412;9.514;2024-02-21T01:04:13;18.40;66.10
12977;DHT22;6553;48.412;9.514;2024-02-21T01:06:39;18.40;66.10
12977;DHT22;6553;48.412;9.514;2024-02-21T01:09:08;18.40;66.10
12977;DHT22;6553;48.412;9.514;2024-02-21T01:11:34;18.40;66.10
12977;DHT22;6553;48.412;9.514;2024-02-21T01:14:00;18.40;66.10
12977;DHT22;6553;48.412;9.514;2024-02-21T01:16:26;18.40;66.00
12977;DHT22;6553;48.412;9.514;2024-02-21T01:18:52;18.40;66.00
12977;DHT22;6553;48.412;9.514;2024-02-21T01:21:18;18.40;66.00
12977;DHT22;6553;48.412;9.514;2024-02-21T01:23:43;18.40;66.00
12977;DHT22;6553;48.412;9.514;2024-02-21T01:26:09;18.30;66.00
12977;DHT22;6553;48.412;9.514;2024-02-21T01:28:38;18.40;66.00
12977;DHT22;6553;48.412;9.514;2024-02-21T01:31:05;18.40;66.10
12977;DHT22;6553;48.412;9.514;2024-02-21T01:33:31;18.40;66.10
12977;DHT22;6553;48.412;9.514;2024-02-21T01:36:04;18.40;66.60
12977;DHT22;6553;48.412;9.514;2024-02-21T01:38:32;18.40;66.10
12977;DHT22;6553;48.412;9.514;2024-02-21T01:40:58;18.40;66.10
12977;DHT22;6553;48.412;9.514;2024-02-21T01:43:24;18.30;66.80
12977;DHT22;6553;48.412;9.514;2024-02-21T01:45:54;18.40;66.20
12977;DHT22;6553;48.412;9.514;2024-02-21T01:48:22;18.30;65.90
12977;DHT22;6553;48.412;9.514;2024-02-21T01:50:49;18.40;66.20
12977;DHT22;6553;48.412;9.514;2024-02-21T01:53:21;18.40;66.10
12977;DHT22;6553;48.412;9.514;2024-02-21T01:55:50;18.30;65.90
12977;DHT22;6553;48.412;9.514;2024-02-21T01:58:17;18.30;65.80
12977;DHT22;6553;48.412;9.514;2024-02-21T02:00:45;18.30;65.90
12977;DHT22;6553;48.412;9.514;2024-02-21T02:03:13;18.30;65.80
12977;DHT22;6553;48.412;9.514;2024-02-21T02:05:46;18.40;66.00
12977;DHT22;6553;48.412;9.514;2024-02-21T02:08:13;18.40;66.00
12977;DHT22;6553;48.412;9.514;2024-02-21T02:10:40;18.40;66.00
12977;DHT22;6553;48.412;9.514;2024-02-21T02:13:07;18.30;65.90
12977;DHT22;6553;48.412;9.514;2024-02-21T02:15:44;18.40;66.00
12977;DHT22;6553;48.412;9.514;2024-02-21T02:18:12;18.30;65.90
12977;DHT22;6553;48.412;9.514;2024-02-21T02:20:40;18.40;66.00
12977;DHT22;6553;48.412;9.514;2024-02-21T02:25:51;18.30;65.90
12977;DHT22;6553;48.412;9.514;2024-02-21T02:28:20;18.30;65.90
12977;DHT22;6553;48.412;9.514;2024-02-21T02:30:46;18.40;66.00
12977;DHT22;6553;48.412;9.514;2024-02-21T02:33:13;18.30;65.80
12977;DHT22;6553;48.412;9.514;2024-02-21T02:35:39;18.30;65.70
12977;DHT22;6553;48.412;9.514;2024-02-21T02:38:05;18.30;65.80
12977;DHT22;6553;48.412;9.514;2024-02-21T02:40:33;18.30;65.80
12977;DHT22;6553;48.412;9.514;2024-02-21T02:43:00;18.30;65.80
12977;DHT22;6553;48.412;9.514;2024-02-21T02:45:26;18.30;65.70
12977;DHT22;6553;48.412;9.514;2024-02-21T02:47:56;18.30;65.90
12977;DHT22;6553;48.412;9.514;2024-02-21T02:50:26;18.30;65.80
12977;DHT22;6553;48.412;9.514;2024-02-21T02:52:53;18.30;65.90
12977;DHT22;6553;48.412;9.514;2024-02-21T02:55:19;18.30;65.80
12977;DHT22;6553;48.412;9.514;2024-02-21T02:57:46;18.30;65.80
12977;DHT22;6553;48.412;9.514;2024-02-21T03:00:12;18.30;65.80
12977;DHT22;6553;48.412;9.514;2024-02-21T03:02:40;18.30;65.70
12977;DHT22;6553;48.412;9.514;2024-02-21T03:05:15;18.30;65.90
12977;DHT22;6553;48.412;9.514;2024-02-21T03:07:43;18.30;65.70
12977;DHT22;6553;48.412;9.514;2024-02-21T03:10:10;18.30;65.80
12977;DHT22;6553;48.412;9.514;2024-02-21T03:12:37;18.30;65.90
12977;DHT22;6553;48.412;9.514;2024-02-21T03:15:04;18.30;65.80
12977;DHT22;6553;48.412;9.514;2024-02-21T03:17:30;18.30;65.70
12977;DHT22;6553;48.412;9.514;2024-02-21T03:19:58;18.30;65.70
12977;DHT22;6553;48.412;9.514;2024-02-21T03:22:25;18.30;65.70
12977;DHT22;6553;48.412;9.514;2024-02-21T03:24:51;18.30;65.70
12977;DHT22;6553;48.412;9.514;2024-02-21T03:27:17;18.40;65.80
12977;DHT22;6553;48.412;9.514;2024-02-21T03:29:43;18.30;65.70
12977;DHT22;6553;48.412;9.514;2024-02-21T03:32:09;18.30;65.70
12977;DHT22;6553;48.412;9.514;2024-02-21T03:34:35;18.30;65.70
12977;DHT22;6553;48.412;9.514;2024-02-21T03:37:01;18.30;65.70
12977;DHT22;6553;48.412;9.514;2024-02-21T03:39:27;18.40;65.70
12977;DHT22;6553;48.412;9.514;2024-02-21T03:41:53;18.30;65.70
12977;DHT22;6553;48.412;9.514;2024-02-21T03:44:19;18.30;65.70
12977;DHT22;6553;48.412;9.514;2024-02-21T03:46:44;18.30;65.80
12977;DHT22;6553;48.412;9.514;2024-02-21T03:49:10;18.30;65.70
12977;DHT22;6553;48.412;9.514;2024-02-21T03:51:37;18.30;66.50
12977;DHT22;6553;48.412;9.514;2024-02-21T03:54:02;18.40;65.90
12977;DHT22;6553;48.412;9.514;2024-02-21T03:56:28;18.40;65.90
12977;DHT22;6553;48.412;9.514;2024-02-21T03:58:54;18.30;65.80
12977;DHT22;6553;48.412;9.514;2024-02-21T04:01:20;18.40;65.90
12977;DHT22;6553;48.412;9.514;2024-02-21T04:03:46;18.30;65.70
12977;DHT22;6553;48.412;9.514;2024-02-21T04:06:12;18.30;65.80
12977;DHT22;6553;48.412;9.514;2024-02-21T04:08:39;18.30;65.70
12977;DHT22;6553;48.412;9.514;2024-02-21T04:11:04;18.30;65.70
12977;DHT22;6553;48.412;9.514;2024-02-21T04:13:30;18.30;65.80
12977;DHT22;6553;48.412;9.514;2024-02-21T04:15:56;18.30;65.80
12977;DHT22;6553;48.412;9.514;2024-02-21T04:18:22;18.30;65.80
12977;DHT22;6553;48.412;9.514;2024-02-21T04:20:48;18.30;65.70
12977;DHT22;6553;48.412;9.514;2024-02-21T04:23:15;18.30;65.70
12977;DHT22;6553;48.412;9.514;2024-02-21T04:25:41;18.30;65.60
12977;DHT22;6553;48.412;9.514;2024-02-21T04:28:07;18.40;65.80
12977;DHT22;6553;48.412;9.514;2024-02-21T04:30:33;18.30;65.60
12977;DHT22;6553;48.412;9.514;2024-02-21T04:32:58;18.30;65.60
12977;DHT22;6553;48.412;9.514;2024-02-21T04:35:24;18.30;65.60
12977;DHT22;6553;48.412;9.514;2024-02-21T04:37:50;18.30;65.70
12977;DHT22;6553;48.412;9.514;2024-02-21T04:40:16;18.30;65.60
12977;DHT22;6553;48.412;9.514;2024-02-21T04:42:42;18.30;65.70
12977;DHT22;6553;48.412;9.514;2024-02-21T04:45:08;18.40;66.60
12977;DHT22;6553;48.412;9.514;2024-02-21T04:47:34;18.30;65.60
12977;DHT22;6553;48.412;9.514;2024-02-21T04:50:00;18.30;65.70
12977;DHT22;6553;48.412;9.514;2024-02-21T04:52:26;18.30;65.60
12977;DHT22;6553;48.412;9.514;2024-02-21T04:54:52;18.30;65.70
12977;DHT22;6553;48.412;9.514;2024-02-21T04:57:18;18.30;65.70
12977;DHT22;6553;48.412;9.514;2024-02-21T04:59:44;18.30;65.70
12977;DHT22;6553;48.412;9.514;2024-02-21T05:02:11;18.30;65.70
12977;DHT22;6553;48.412;9.514;2024-02-21T05:04:37;18.30;65.60
12977;DHT22;6553;48.412;9.514;2024-02-21T05:07:04;18.30;65.60
12977;DHT22;6553;48.412;9.514;2024-02-21T05:09:30;18.30;65.70
12977;DHT22;6553;48.412;9.514;2024-02-21T05:11:56;18.30;65.70
12977;DHT22;6553;48.412;9.514;2024-02-21T05:14:25;18.30;65.60
12977;DHT22;6553;48.412;9.514;2024-02-21T05:16:52;18.30;65.50
12977;DHT22;6553;48.412;9.514;2024-02-21T05:19:18;18.30;65.50
12977;DHT22;6553;48.412;9.514;2024-02-21T05:21:45;18.30;65.50
12977;DHT22;6553;48.412;9.514;2024-02-21T05:24:11;18.30;65.50
12977;DHT22;6553;48.412;9.514;2024-02-21T05:26:37;18.30;65.40
12977;DHT22;6553;48.412;9.514;2024-02-21T05:29:02;18.30;65.50
12977;DHT22;6553;48.412;9.514;2024-02-21T05:31:54;18.30;65.50
12977;DHT22;6553;48.412;9.514;2024-02-21T05:34:23;18.30;65.50
12977;DHT22;6553;48.412;9.514;2024-02-21T05:36:51;18.30;65.60
12977;DHT22;6553;48.412;9.514;2024-02-21T05:39:17;18.30;65.60
12977;DHT22;6553;48.412;9.514;2024-02-21T05:41:43;18.30;65.60
12977;DHT22;6553;48.412;9.514;2024-02-21T05:44:09;18.30;65.50
12977;DHT22;6553;48.412;9.514;2024-02-21T05:46:34;18.30;65.50
12977;DHT22;6553;48.412;9.514;2024-02-21T05:49:00;18.30;65.50
12977;DHT22;6553;48.412;9.514;2024-02-21T05:51:26;18.30;65.50
12977;DHT22;6553;48.412;9.514;2024-02-21T05:53:52;18.30;65.50
12977;DHT22;6553;48.412;9.514;2024-02-21T05:56:18;18.30;65.40
12977;DHT22;6553;48.412;9.514;2024-02-21T05:58:44;18.30;65.40
12977;DHT22;6553;48.412;9.514;2024-02-21T06:01:11;18.30;65.40
12977;DHT22;6553;48.412;9.514;2024-02-21T06:03:37;18.20;65.20
12977;DHT22;6553;48.412;9.514;2024-02-21T06:06:03;18.30;65.20
12977;DHT22;6553;48.412;9.514;2024-02-21T06:08:30;18.20;65.20
12977;DHT22;6553;48.412;9.514;2024-02-21T06:10:56;18.20;65.30
12977;DHT22;6553;48.412;9.514;2024-02-21T06:13:23;18.20;65.90
12977;DHT22;6553;48.412;9.514;2024-02-21T06:15:50;18.30;65.10
12977;DHT22;6553;48.412;9.514;2024-02-21T06:18:20;18.20;65.10
12977;DHT22;6553;48.412;9.514;2024-02-21T06:20:46;18.20;65.10
12977;DHT22;6553;48.412;9.514;2024-02-21T06:23:12;18.20;65.20
12977;DHT22;6553;48.412;9.514;2024-02-21T06:25:41;18.20;65.10
12977;DHT22;6553;48.412;9.514;2024-02-21T06:28:06;18.20;65.20
12977;DHT22;6553;48.412;9.514;2024-02-21T06:30:32;18.20;65.20
12977;DHT22;6553;48.412;9.514;2024-02-21T06:32:58;18.20;65.00
12977;DHT22;6553;48.412;9.514;2024-02-21T06:35:25;18.20;65.10
12977;DHT22;6553;48.412;9.514;2024-02-21T06:37:51;18.20;65.00
12977;DHT22;6553;48.412;9.514;2024-02-21T06:40:20;18.20;65.00
12977;DHT22;6553;48.412;9.514;2024-02-21T06:42:47;18.20;65.00
12977;DHT22;6553;48.412;9.514;2024-02-21T06:45:13;18.20;65.00
12977;DHT22;6553;48.412;9.514;2024-02-21T06:47:39;18.20;65.00
12977;DHT22;6553;48.412;9.514;2024-02-21T06:50:05;18.20;65.00
12977;DHT22;6553;48.412;9.514;2024-02-21T06:52:31;18.20;65.00
12977;DHT22;6553;48.412;9.514;2024-02-21T06:54:57;18.20;65.00
12977;DHT22;6553;48.412;9.514;2024-02-21T06:57:22;18.20;65.20
12977;DHT22;6553;48.412;9.514;2024-02-21T06:59:49;18.20;65.00
12977;DHT22;6553;48.412;9.514;2024-02-21T07:02:14;18.20;65.00
12977;DHT22;6553;48.412;9.514;2024-02-21T07:04:40;18.20;65.00
12977;DHT22;6553;48.412;9.514;2024-02-21T07:07:06;18.20;64.90
12977;DHT22;6553;48.412;9.514;2024-02-21T07:09:32;18.20;64.80
12977;DHT22;6553;48.412;9.514;2024-02-21T07:11:58;18.20;64.90
12977;DHT22;6553;48.412;9.514;2024-02-21T07:14:25;18.20;64.90
12977;DHT22;6553;48.412;9.514;2024-02-21T07:16:51;18.20;64.80
12977;DHT22;6553;48.412;9.514;2024-02-21T07:19:17;18.20;64.90
12977;DHT22;6553;48.412;9.514;2024-02-21T07:21:43;18.20;64.90
12977;DHT22;6553;48.412;9.514;2024-02-21T07:24:09;18.20;64.80
12977;DHT22;6553;48.412;9.514;2024-02-21T07:26:35;18.20;65.00
12977;DHT22;6553;48.412;9.514;2024-02-21T07:29:00;18.20;65.00
12977;DHT22;6553;48.412;9.514;2024-02-21T07:31:26;18.20;64.90
12977;DHT22;6553;48.412;9.514;2024-02-21T07:33:52;18.20;64.90
12977;DHT22;6553;48.412;9.514;2024-02-21T07:36:29;18.20;64.70
12977;DHT22;6553;48.412;9.514;2024-02-21T07:38:58;18.20;64.80
12977;DHT22;6553;48.412;9.514;2024-02-21T07:41:25;18.20;65.60
12977;DHT22;6553;48.412;9.514;2024-02-21T07:43:51;18.20;64.80
12977;DHT22;6553;48.412;9.514;2024-02-21T07:46:18;18.20;64.70
12977;DHT22;6553;48.412;9.514;2024-02-21T07:48:45;18.20;64.70
12977;DHT22;6553;48.412;9.514;2024-02-21T07:51:12;18.20;64.80
12977;DHT22;6553;48.412;9.514;2024-02-21T07:53:41;18.20;64.70
12977;DHT22;6553;48.412;9.514;2024-02-21T07:56:14;18.20;64.80
12977;DHT22;6553;48.412;9.514;2024-02-21T07:58:43;18.20;64.70
12977;DHT22;6553;48.412;9.514;2024-02-21T08:01:10;18.20;64.70
12977;DHT22;6553;48.412;9.514;2024-02-21T08:03:36;18.20;64.70
12977;DHT22;6553;48.412;9.514;2024-02-21T08:06:02;18.20;65.50
12977;DHT22;6553;48.412;9.514;2024-02-21T08:08:28;18.20;64.80
12977;DHT22;6553;48.412;9.514;2024-02-21T08:10:54;18.20;64.90
12977;DHT22;6553;48.412;9.514;2024-02-21T08:13:20;18.20;64.80
12977;DHT22;6553;48.412;9.514;2024-02-21T08:15:46;18.20;64.80
12977;DHT22;6553;48.412;9.514;2024-02-21T08:18:12;18.20;64.90
12977;DHT22;6553;48.412;9.514;2024-02-21T08:20:38;18.20;64.90
12977;DHT22;6553;48.412;9.514;2024-02-21T08:23:03;18.20;64.90
12977;DHT22;6553;48.412;9.514;2024-02-21T08:25:29;18.20;65.00
12977;DHT22;6553;48.412;9.514;2024-02-21T08:27:58;18.20;64.90
12977;DHT22;6553;48.412;9.514;2024-02-21T08:30:24;18.20;65.00
12977;DHT22;6553;48.412;9.514;2024-02-21T08:32:50;18.20;64.80
12977;DHT22;6553;48.412;9.514;2024-02-21T08:35:16;18.20;64.80
12977;DHT22;6553;48.412;9.514;2024-02-21T08:37:44;18.30;64.90
12977;DHT22;6553;48.412;9.514;2024-02-21T08:40:12;18.20;64.80
12977;DHT22;6553;48.412;9.514;2024-02-21T08:42:41;18.30;64.90
12977;DHT22;6553;48.412;9.514;2024-02-21T08:45:08;18.30;64.90
12977;DHT22;6553;48.412;9.514;2024-02-21T08:47:34;18.30;65.70
12977;DHT22;6553;48.412;9.514;2024-02-21T08:50:01;18.30;64.90
12977;DHT22;6553;48.412;9.514;2024-02-21T08:52:28;18.30;65.00
12977;DHT22;6553;48.412;9.514;2024-02-21T08:54:54;18.30;65.00
12977;DHT22;6553;48.412;9.514;2024-02-21T08:57:20;18.30;64.90
12977;DHT22;6553;48.412;9.514;2024-02-21T08:59:46;18.30;65.00
12977;DHT22;6553;48.412;9.514;2024-02-21T09:02:13;18.30;65.00
12977;DHT22;6553;48.412;9.514;2024-02-21T09:04:41;18.30;65.00
12977;DHT22;6553;48.412;9.514;2024-02-21T09:07:07;18.30;64.80
12977;DHT22;6553;48.412;9.514;2024-02-21T09:09:33;18.30;64.80
12977;DHT22;6553;48.412;9.514;2024-02-21T09:11:59;18.40;64.90
12977;DHT22;6553;48.412;9.514;2024-02-21T09:14:32;18.40;65.60
12977;DHT22;6553;48.412;9.514;2024-02-21T09:16:58;18.40;64.80
12977;DHT22;6553;48.412;9.514;2024-02-21T09:19:24;18.40;64.80
12977;DHT22;6553;48.412;9.514;2024-02-21T09:21:50;18.40;64.80
12977;DHT22;6553;48.412;9.514;2024-02-21T09:24:15;18.40;64.80
12977;DHT22;6553;48.412;9.514;2024-02-21T09:26:41;18.40;64.80
12977;DHT22;6553;48.412;9.514;2024-02-21T09:29:07;18.50;64.90
12977;DHT22;6553;48.412;9.514;2024-02-21T09:31:33;18.50;64.90
12977;DHT22;6553;48.412;9.514;2024-02-21T09:33:59;18.50;64.90
12977;DHT22;6553;48.412;9.514;2024-02-21T09:36:24;18.50;64.90
12977;DHT22;6553;48.412;9.514;2024-02-21T09:38:50;18.50;64.90
12977;DHT22;6553;48.412;9.514;2024-02-21T09:41:17;18.50;64.90
12977;DHT22;6553;48.412;9.514;2024-02-21T09:43:44;18.50;65.00
12977;DHT22;6553;48.412;9.514;2024-02-21T09:46:18;18.50;64.90
12977;DHT22;6553;48.412;9.514;2024-02-21T09:51:42;18.50;65.10
12977;DHT22;6553;48.412;9.514;2024-02-21T09:54:09;18.50;65.80
12977;DHT22;6553;48.412;9.514;2024-02-21T09:56:35;18.50;65.00
12977;DHT22;6553;48.412;9.514;2024-02-21T09:59:02;18.50;65.00
12977;DHT22;6553;48.412;9.514;2024-02-21T10:01:31;18.50;65.00
12977;DHT22;6553;48.412;9.514;2024-02-21T10:03:57;18.50;65.00
12977;DHT22;6553;48.412;9.514;2024-02-21T10:06:23;18.50;64.90
12977;DHT22;6553;48.412;9.514;2024-02-21T10:08:53;18.50;64.90
12977;DHT22;6553;48.412;9.514;2024-02-21T10:11:25;18.50;64.90
12977;DHT22;6553;48.412;9.514;2024-02-21T10:14:05;18.50;64.80
12977;DHT22;6553;48.412;9.514;2024-02-21T10:16:34;18.60;65.00
12977;DHT22;6553;48.412;9.514;2024-02-21T10:19:00;18.60;65.00
12977;DHT22;6553;48.412;9.514;2024-02-21T10:21:26;18.60;65.00
12977;DHT22;6553;48.412;9.514;2024-02-21T10:23:52;18.60;65.00
12977;DHT22;6553;48.412;9.514;2024-02-21T10:26:19;18.60;65.00
12977;DHT22;6553;48.412;9.514;2024-02-21T10:28:46;18.60;65.00
12977;DHT22;6553;48.412;9.514;2024-02-21T10:31:25;18.60;65.00
12977;DHT22;6553;48.412;9.514;2024-02-21T10:33:58;18.60;65.00
12977;DHT22;6553;48.412;9.514;2024-02-21T10:36:26;18.60;65.00
12977;DHT22;6553;48.412;9.514;2024-02-21T10:38:52;18.60;65.00
12977;DHT22;6553;48.412;9.514;2024-02-21T10:41:20;18.60;65.00
12977;DHT22;6553;48.412;9.514;2024-02-21T10:43:53;18.60;65.00
12977;DHT22;6553;48.412;9.514;2024-02-21T10:46:22;18.60;65.00
12977;DHT22;6553;48.412;9.514;2024-02-21T10:49:01;18.60;65.00
12977;DHT22;6553;48.412;9.514;2024-02-21T10:51:33;18.60;64.90
12977;DHT22;6553;48.412;9.514;2024-02-21T10:56:59;18.60;65.00
12977;DHT22;6553;48.412;9.514;2024-02-21T10:59:27;18.60;65.00
12977;DHT22;6553;48.412;9.514;2024-02-21T11:01:55;18.60;65.00
12977;DHT22;6553;48.412;9.514;2024-02-21T11:04:21;18.60;65.00
12977;DHT22;6553;48.412;9.514;2024-02-21T11:06:48;18.60;65.00
12977;DHT22;6553;48.412;9.514;2024-02-21T11:09:14;18.70;65.00
12977;DHT22;6553;48.412;9.514;2024-02-21T11:11:41;18.60;64.90
12977;DHT22;6553;48.412;9.514;2024-02-21T11:14:10;18.60;64.90
12977;DHT22;6553;48.412;9.514;2024-02-21T11:16:42;18.70;64.90
12977;DHT22;6553;48.412;9.514;2024-02-21T11:19:09;18.70;65.00
12977;DHT22;6553;48.412;9.514;2024-02-21T11:21:57;18.70;64.90
12977;DHT22;6553;48.412;9.514;2024-02-21T11:24:31;18.70;64.90
12977;DHT22;6553;48.412;9.514;2024-02-21T11:27:13;18.70;64.90
12977;DHT22;6553;48.412;9.514;2024-02-21T11:29:46;18.70;64.90
12977;DHT22;6553;48.412;9.514;2024-02-21T11:32:17;18.70;65.00
12977;DHT22;6553;48.412;9.514;2024-02-21T11:34:59;18.70;65.00
12977;DHT22;6553;48.412;9.514;2024-02-21T11:37:33;18.70;65.00
12977;DHT22;6553;48.412;9.514;2024-02-21T11:40:00;18.70;64.90
12977;DHT22;6553;48.412;9.514;2024-02-21T11:42:27;18.70;64.90
12977;DHT22;6553;48.412;9.514;2024-02-21T11:44:54;18.70;64.90
12977;DHT22;6553;48.412;9.514;2024-02-21T11:47:24;18.70;65.00
12977;DHT22;6553;48.412;9.514;2024-02-21T11:49:50;18.70;64.90
12977;DHT22;6553;48.412;9.514;2024-02-21T11:52:23;18.70;65.00
12977;DHT22;6553;48.412;9.514;2024-02-21T11:54:51;18.70;64.80
12977;DHT22;6553;48.412;9.514;2024-02-21T11:57:18;18.70;65.50
12977;DHT22;6553;48.412;9.514;2024-02-21T11:59:47;18.70;65.00
12977;DHT22;6553;48.412;9.514;2024-02-21T12:02:14;18.70;64.90
12977;DHT22;6553;48.412;9.514;2024-02-21T12:04:41;18.70;64.90
12977;DHT22;6553;48.412;9.514;2024-02-21T12:07:07;18.70;65.00
12977;DHT22;6553;48.412;9.514;2024-02-21T12:09:34;18.70;65.00
12977;DHT22;6553;48.412;9.514;2024-02-21T12:12:05;18.80;65.10
12977;DHT22;6553;48.412;9.514;2024-02-21T12:14:33;18.80;65.10
12977;DHT22;6553;48.412;9.514;2024-02-21T12:17:00;18.80;65.00
12977;DHT22;6553;48.412;9.514;2024-02-21T12:19:32;18.80;65.10
12977;DHT22;6553;48.412;9.514;2024-02-21T12:21:59;18.80;65.10
12977;DHT22;6553;48.412;9.514;2024-02-21T12:24:26;18.70;65.00
12977;DHT22;6553;48.412;9.514;2024-02-21T12:26:54;18.80;65.00
12977;DHT22;6553;48.412;9.514;2024-02-21T12:29:22;18.70;64.90
12977;DHT22;6553;48.412;9.514;2024-02-21T12:31:50;18.70;64.90
12977;DHT22;6553;48.412;9.514;2024-02-21T12:34:16;18.80;65.00
12977;DHT22;6553;48.412;9.514;2024-02-21T12:36:43;18.80;65.10
12977;DHT22;6553;48.412;9.514;2024-02-21T12:39:12;18.80;64.90
12977;DHT22;6553;48.412;9.514;2024-02-21T12:41:38;18.80;65.00
12977;DHT22;6553;48.412;9.514;2024-02-21T12:44:07;18.80;64.90
12977;DHT22;6553;48.412;9.514;2024-02-21T12:46:33;18.80;64.90
12977;DHT22;6553;48.412;9.514;2024-02-21T12:49:03;18.80;64.80
12977;DHT22;6553;48.412;9.514;2024-02-21T12:51:32;18.80;64.80
12977;DHT22;6553;48.412;9.514;2024-02-21T12:53:59;18.80;65.10
12977;DHT22;6553;48.412;9.514;2024-02-21T12:56:25;18.80;65.00
12977;DHT22;6553;48.412;9.514;2024-02-21T12:58:53;18.80;65.10
12977;DHT22;6553;48.412;9.514;2024-02-21T13:01:19;18.80;65.10
12977;DHT22;6553;48.412;9.514;2024-02-21T13:03:45;18.80;65.10
12977;DHT22;6553;48.412;9.514;2024-02-21T13:06:12;18.80;65.00
12977;DHT22;6553;48.412;9.514;2024-02-21T13:08:38;18.80;65.00
12977;DHT22;6553;48.412;9.514;2024-02-21T13:11:05;18.80;65.10
12977;DHT22;6553;48.412;9.514;2024-02-21T13:13:31;18.80;65.00
12977;DHT22;6553;48.412;9.514;2024-02-21T13:16:00;18.80;65.10
12977;DHT22;6553;48.412;9.514;2024-02-21T13:18:26;18.80;64.90
12977;DHT22;6553;48.412;9.514;2024-02-21T13:20:51;18.80;65.00
12977;DHT22;6553;48.412;9.514;2024-02-21T13:23:17;18.80;65.00
12977;DHT22;6553;48.412;9.514;2024-02-21T13:25:43;18.80;64.90
12977;DHT22;6553;48.412;9.514;2024-02-21T13:28:11;18.80;65.10
12977;DHT22;6553;48.412;9.514;2024-02-21T13:30:37;18.80;65.00
12977;DHT22;6553;48.412;9.514;2024-02-21T13:33:02;18.80;65.00
12977;DHT22;6553;48.412;9.514;2024-02-21T13:35:29;18.80;65.10
12977;DHT22;6553;48.412;9.514;2024-02-21T13:37:54;18.80;65.10
12977;DHT22;6553;48.412;9.514;2024-02-21T13:40:20;18.80;64.80
12977;DHT22;6553;48.412;9.514;2024-02-21T13:42:46;18.80;65.00
12977;DHT22;6553;48.412;9.514;2024-02-21T13:45:12;18.80;65.10
12977;DHT22;6553;48.412;9.514;2024-02-21T13:47:37;18.80;65.10
12977;DHT22;6553;48.412;9.514;2024-02-21T13:50:05;18.80;65.10
12977;DHT22;6553;48.412;9.514;2024-02-21T13:52:36;18.80;65.10
12977;DHT22;6553;48.412;9.514;2024-02-21T13:55:03;18.80;65.00
12977;DHT22;6553;48.412;9.514;2024-02-21T13:57:29;18.80;65.10
12977;DHT22;6553;48.412;9.514;2024-02-21T13:59:55;18.80;65.20
12977;DHT22;6553;48.412;9.514;2024-02-21T14:02:20;18.80;65.10
12977;DHT22;6553;48.412;9.514;2024-02-21T14:04:47;18.80;64.90
12977;DHT22;6553;48.412;9.514;2024-02-21T14:07:13;18.80;65.10
12977;DHT22;6553;48.412;9.514;2024-02-21T14:09:38;18.80;65.10
12977;DHT22;6553;48.412;9.514;2024-02-21T14:12:04;18.80;65.00
12977;DHT22;6553;48.412;9.514;2024-02-21T14:14:37;18.80;65.00
12977;DHT22;6553;48.412;9.514;2024-02-21T14:17:03;18.80;64.90
12977;DHT22;6553;48.412;9.514;2024-02-21T14:19:30;18.80;65.00
12977;DHT22;6553;48.412;9.514;2024-02-21T14:21:56;18.80;65.10
12977;DHT22;6553;48.412;9.514;2024-02-21T14:24:23;18.80;64.90
12977;DHT22;6553;48.412;9.514;2024-02-21T14:26:49;18.80;64.80
12977;DHT22;6553;48.412;9.514;2024-02-21T14:29:15;18.80;65.10
12977;DHT22;6553;48.412;9.514;2024-02-21T14:31:40;18.80;65.00
12977;DHT22;6553;48.412;9.514;2024-02-21T14:34:06;18.90;65.50
12977;DHT22;6553;48.412;9.514;2024-02-21T14:36:33;18.80;65.40
12977;DHT22;6553;48.412;9.514;2024-02-21T14:38:59;18.80;65.30
12977;DHT22;6553;48.412;9.514;2024-02-21T14:41:25;18.80;65.30
12977;DHT22;6553;48.412;9.514;2024-02-21T14:43:51;18.80;65.20
12977;DHT22;6553;48.412;9.514;2024-02-21T14:46:17;18.80;65.40
12977;DHT22;6553;48.412;9.514;2024-02-21T14:48:43;18.80;65.40
12977;DHT22;6553;48.412;9.514;2024-02-21T14:51:09;18.80;65.20
12977;DHT22;6553;48.412;9.514;2024-02-21T14:53:34;18.80;65.20
12977;DHT22;6553;48.412;9.514;2024-02-21T14:56:00;18.80;65.20
12977;DHT22;6553;48.412;9.514;2024-02-21T14:58:26;18.80;66.00
12977;DHT22;6553;48.412;9.514;2024-02-21T15:00:52;18.80;65.30
12977;DHT22;6553;48.412;9.514;2024-02-21T15:03:19;18.80;65.20
12977;DHT22;6553;48.412;9.514;2024-02-21T15:05:46;18.80;65.20
12977;DHT22;6553;48.412;9.514;2024-02-21T15:08:12;18.80;65.30
12977;DHT22;6553;48.412;9.514;2024-02-21T15:10:45;18.80;66.00
12977;DHT22;6553;48.412;9.514;2024-02-21T15:13:10;18.80;65.20
12977;DHT22;6553;48.412;9.514;2024-02-21T15:15:36;18.80;65.20
12977;DHT22;6553;48.412;9.514;2024-02-21T15:18:02;18.80;65.20
12977;DHT22;6553;48.412;9.514;2024-02-21T15:20:28;18.80;65.20
12977;DHT22;6553;48.412;9.514;2024-02-21T15:22:54;18.80;65.00
12977;DHT22;6553;48.412;9.514;2024-02-21T15:25:20;18.80;65.10
12977;DHT22;6553;48.412;9.514;2024-02-21T15:27:46;18.80;65.30
12977;DHT22;6553;48.412;9.514;2024-02-21T15:30:13;18.80;65.30
12977;DHT22;6553;48.412;9.514;2024-02-21T15:32:40;18.80;65.00
12977;DHT22;6553;48.412;9.514;2024-02-21T15:35:10;18.80;65.30
12977;DHT22;6553;48.412;9.514;2024-02-21T15:37:36;18.80;65.30
12977;DHT22;6553;48.412;9.514;2024-02-21T15:40:02;18.80;65.20
12977;DHT22;6553;48.412;9.514;2024-02-21T15:42:29;18.80;65.30
12977;DHT22;6553;48.412;9.514;2024-02-21T15:44:58;18.80;65.20
12977;DHT22;6553;48.412;9.514;2024-02-21T15:47:27;18.80;65.30
12977;DHT22;6553;48.412;9.514;2024-02-21T15:49:53;18.80;65.20
12977;DHT22;6553;48.412;9.514;2024-02-21T15:52:19;18.80;65.20